Time;durP1;ratioP1;P1;durP2;ratioP2;P2;SDS_P1;SDS_P2;PMS_P1;PMS_P2;Temp;Humidity;BMP_temperature;BMP_pressure;BME280_temperature;BME280_humidity;BME280_pressure;Samples;Min_cycle;Max_cycle;Signal;HPM_P1;HPM_P2
2023/11/11 00:02:07;;;;;;;2.70;2.50;;;11.90;99.30;;;;;;5005564;28;20786;-33
2023/11/11 00:04:35;;;;;;;2.92;2.60;;;11.90;99.10;;;;;;5023788;28;21230;-31
2023/11/11 00:07:01;;;;;;;3.00;2.70;;;12.00;99.10;;;;;;5013962;28;20768;-31
2023/11/11 00:09:27;;;;;;;3.47;2.53;;;12.00;99.00;;;;;;5025368;28;21084;-36
2023/11/11 00:11:58;;;;;;;2.70;2.50;;;12.00;99.00;;;;;;5013450;28;21262;-30
2023/11/11 00:14:24;;;;;;;3.00;2.70;;;12.00;99.00;;;;;;5005718;28;20797;-31
2023/11/11 00:16:51;;;;;;;2.90;2.60;;;11.90;99.10;;;;;;5005554;28;20443;-33
2023/11/11 00:19:20;;;;;;;2.45;2.25;;;11.90;99.10;;;;;;5023335;28;20431;-31
2023/11/11 00:21:49;;;;;;;3.30;2.17;;;11.90;99.10;;;;;;5022872;28;20216;-33
2023/11/11 00:24:15;;;;;;;2.30;2.10;;;11.90;99.10;;;;;;4996566;28;20440;-35
2023/11/11 00:26:46;;;;;;;2.30;2.10;;;11.90;99.00;;;;;;5032404;28;20464;-33
2023/11/11 00:29:12;;;;;;;3.30;3.00;;;11.90;99.10;;;;;;5033727;28;20427;-36
2023/11/11 00:31:39;;;;;;;2.93;2.63;;;11.90;99.10;;;;;;5005705;28;20613;-31
2023/11/11 00:34:06;;;;;;;4.20;2.30;;;11.90;99.00;;;;;;5024625;28;20430;-33
2023/11/11 00:36:39;;;;;;;2.50;2.30;;;11.90;99.00;;;;;;5027522;28;21123;-36
2023/11/11 00:39:06;;;;;;;2.87;2.67;;;11.90;99.00;;;;;;5036380;28;20878;-33
2023/11/11 00:41:33;;;;;;;2.73;2.53;;;11.90;99.00;;;;;;4989735;28;21141;-33
2023/11/11 00:43:59;;;;;;;3.13;2.50;;;11.90;99.10;;;;;;5005166;28;20450;-32
2023/11/11 00:46:25;;;;;;;4.87;2.90;;;11.90;99.20;;;;;;5023527;28;20432;-33
2023/11/11 00:48:51;;;;;;;2.63;2.42;;;11.80;99.10;;;;;;5023218;28;20423;-33
2023/11/11 00:51:18;;;;;;;3.40;2.55;;;11.80;99.10;;;;;;5024345;28;20295;-32
2023/11/11 00:53:44;;;;;;;2.60;2.40;;;11.90;99.10;;;;;;4993604;28;20199;-36
2023/11/11 00:56:11;;;;;;;2.33;2.13;;;11.90;99.00;;;;;;5035031;28;20431;-33
2023/11/11 00:58:37;;;;;;;2.60;2.40;;;11.90;99.00;;;;;;5012835;28;20843;-33
2023/11/11 01:01:06;;;;;;;2.70;2.50;;;11.90;99.00;;;;;;5046583;22;20537;-28
2023/11/11 01:03:35;;;;;;;2.60;2.40;;;11.90;99.00;;;;;;5032379;28;20223;-28
2023/11/11 01:06:00;;;;;;;4.13;3.40;;;11.90;99.10;;;;;;5013866;28;20436;-28
2023/11/11 01:08:27;;;;;;;3.00;2.80;;;11.80;99.10;;;;;;4971177;28;20444;-28
2023/11/11 01:10:52;;;;;;;2.77;2.57;;;11.80;99.20;;;;;;5030198;28;20500;-28
2023/11/11 01:13:21;;;;;;;3.70;3.00;;;11.80;99.20;;;;;;5007052;28;21297;-27
2023/11/11 01:15:51;;;;;;;3.40;2.77;;;11.80;99.30;;;;;;5001407;28;20442;-28
2023/11/11 01:18:17;;;;;;;3.00;2.80;;;11.80;99.30;;;;;;5011985;28;20434;-28
2023/11/11 01:20:46;;;;;;;4.30;3.13;;;11.80;99.30;;;;;;5009245;28;21138;-28
2023/11/11 01:23:12;;;;;;;3.22;2.92;;;11.80;99.20;;;;;;5034287;28;20427;-28
2023/11/11 01:25:41;;;;;;;3.63;3.33;;;11.90;99.20;;;;;;5000970;28;20192;-28
2023/11/11 01:28:11;;;;;;;4.33;3.70;;;11.90;99.10;;;;;;5011084;28;20429;-27
2023/11/11 01:30:38;;;;;;;3.97;3.60;;;11.90;99.10;;;;;;5031220;28;21219;-28
2023/11/11 01:33:06;;;;;;;6.83;3.53;;;11.90;99.20;;;;;;4985825;28;20451;-28
2023/11/11 01:35:32;;;;;;;4.40;4.00;;;11.80;99.10;;;;;;5029910;28;20518;-28
2023/11/11 01:37:58;;;;;;;4.90;4.23;;;11.80;99.20;;;;;;5019664;28;20421;-28
2023/11/11 01:40:24;;;;;;;4.77;4.37;;;11.90;99.30;;;;;;5013105;28;20423;-27
2023/11/11 01:42:50;;;;;;;5.60;4.10;;;11.80;99.30;;;;;;5005077;28;21063;-28
2023/11/11 01:45:18;;;;;;;5.43;4.93;;;11.80;99.30;;;;;;5033725;28;20533;-28
2023/11/11 01:47:44;;;;;;;4.60;3.97;;;11.80;99.30;;;;;;5031968;28;20830;-28
2023/11/11 01:50:12;;;;;;;5.07;4.57;;;11.80;99.30;;;;;;5005267;28;20432;-28
2023/11/11 01:52:39;;;;;;;4.47;4.07;;;11.80;99.40;;;;;;5008215;28;20450;-28
2023/11/11 01:55:07;;;;;;;4.67;4.27;;;11.80;99.40;;;;;;5012090;28;20448;-28
2023/11/11 01:57:34;;;;;;;4.23;3.83;;;11.80;99.40;;;;;;4991910;28;20471;-28
2023/11/11 02:00:10;;;;;;;4.30;3.87;;;11.80;99.40;;;;;;5015108;28;20442;-27
2023/11/11 02:02:40;;;;;;;5.83;4.07;;;11.80;99.40;;;;;;4997363;28;20455;-27
2023/11/11 02:05:06;;;;;;;5.23;3.93;;;11.80;99.40;;;;;;5012247;28;20425;-27
2023/11/11 02:07:35;;;;;;;4.50;4.10;;;11.70;99.40;;;;;;5015772;28;20426;-27
2023/11/11 02:10:05;;;;;;;5.97;4.70;;;11.70;99.40;;;;;;5000515;28;20468;-28
2023/11/11 02:12:32;;;;;;;6.07;4.97;;;11.70;99.40;;;;;;5018953;28;20435;-28
2023/11/11 02:14:59;;;;;;;8.47;5.03;;;11.70;99.40;;;;;;4998023;28;20517;-26
2023/11/11 02:17:29;;;;;;;5.60;4.70;;;11.70;99.40;;;;;;4994171;28;20426;-27
2023/11/11 02:19:55;;;;;;;6.63;5.00;;;11.70;99.40;;;;;;5004300;28;20424;-27
2023/11/11 02:22:25;;;;;;;5.33;4.80;;;11.80;99.40;;;;;;5015525;28;20444;-28
2023/11/11 02:24:54;;;;;;;6.82;4.82;;;11.80;99.30;;;;;;5013209;28;20458;-27
2023/11/11 02:27:21;;;;;;;5.10;4.60;;;11.80;99.20;;;;;;5005786;28;20270;-28
2023/11/11 02:29:49;;;;;;;6.37;5.77;;;11.80;99.10;;;;;;4998914;28;20444;-27
2023/11/11 02:32:17;;;;;;;5.13;4.73;;;11.80;99.10;;;;;;5006363;28;20657;-27
2023/11/11 02:34:46;;;;;;;10.05;5.00;;;11.80;99.10;;;;;;5011159;28;20209;-28
2023/11/11 02:37:12;;;;;;;6.27;5.43;;;11.80;99.10;;;;;;5003161;28;20665;-28
2023/11/11 02:39:38;;;;;;;5.23;4.73;;;11.80;99.10;;;;;;5021833;28;20469;-27
2023/11/11 02:42:04;;;;;;;4.77;4.33;;;11.80;99.40;;;;;;5001151;28;20973;-27
2023/11/11 02:44:30;;;;;;;5.73;5.13;;;11.80;99.10;;;;;;5009990;28;20949;-27
2023/11/11 02:46:56;;;;;;;5.33;4.80;;;11.80;99.10;;;;;;5016717;28;20434;-28
2023/11/11 02:49:23;;;;;;;5.10;4.60;;;11.70;99.10;;;;;;5017469;28;20491;-28
2023/11/11 02:51:49;;;;;;;5.95;5.35;;;11.70;99.10;;;;;;4988391;28;21062;-27
2023/11/11 02:54:18;;;;;;;5.22;4.38;;;11.70;99.10;;;;;;5007779;28;20203;-27
2023/11/11 02:56:46;;;;;;;5.27;4.60;;;11.80;99.10;;;;;;4992618;28;20187;-27
2023/11/11 02:59:13;;;;;;;8.50;5.17;;;11.80;98.90;;;;;;5013254;28;20460;-27
2023/11/11 03:01:41;;;;;;;4.93;4.47;;;11.80;98.90;;;;;;5011061;28;20467;-28
2023/11/11 03:04:07;;;;;;;5.50;5.00;;;11.80;98.90;;;;;;5008307;28;20447;-27
2023/11/11 03:06:38;;;;;;;5.47;4.90;;;11.80;99.00;;;;;;5033403;28;20436;-28
2023/11/11 03:09:07;;;;;;;5.00;4.50;;;11.70;99.00;;;;;;5020629;28;20427;-27
2023/11/11 03:11:33;;;;;;;4.88;4.38;;;11.70;99.00;;;;;;5009987;28;20630;-27
2023/11/11 03:14:00;;;;;;;5.50;5.00;;;11.70;99.10;;;;;;5004414;28;20201;-27
2023/11/11 03:16:39;;;;;;;4.67;4.27;;;11.70;99.00;;;;;;5008580;28;20450;-27
2023/11/11 03:19:06;;;;;;;5.00;4.50;;;11.70;98.90;;;;;;5024479;28;20440;-27
2023/11/11 03:21:33;;;;;;;8.27;5.20;;;11.70;99.00;;;;;;4992614;28;20476;-28
2023/11/11 03:23:59;;;;;;;6.07;4.63;;;11.70;99.00;;;;;;5034355;28;20930;-28
2023/11/11 03:26:27;;;;;;;4.55;4.15;;;11.70;99.10;;;;;;5016315;28;21244;-27
2023/11/11 03:28:53;;;;;;;4.23;3.60;;;11.70;99.10;;;;;;5014108;28;20230;-27
2023/11/11 03:31:22;;;;;;;4.93;4.43;;;11.70;99.00;;;;;;5012123;28;20530;-27
2023/11/11 03:33:50;;;;;;;5.23;4.43;;;11.70;99.00;;;;;;5039902;28;21292;-27
2023/11/11 03:36:16;;;;;;;7.70;5.40;;;11.70;99.00;;;;;;5013782;28;20557;-28
2023/11/11 03:38:45;;;;;;;5.00;4.50;;;11.70;99.10;;;;;;5026513;28;21118;-27
2023/11/11 03:41:13;;;;;;;5.77;4.80;;;11.70;99.10;;;;;;5026868;28;20435;-27
2023/11/11 03:43:39;;;;;;;5.23;4.70;;;11.70;99.20;;;;;;5028636;28;20424;-28
2023/11/11 03:46:05;;;;;;;7.10;5.07;;;11.60;99.10;;;;;;4994319;28;20433;-27
2023/11/11 03:48:31;;;;;;;5.30;4.80;;;11.70;99.20;;;;;;5013369;28;20442;-27
2023/11/11 03:50:57;;;;;;;4.60;4.20;;;11.60;99.20;;;;;;5025171;28;20468;-27
2023/11/11 03:53:26;;;;;;;5.50;4.60;;;11.60;99.20;;;;;;5010462;28;20456;-27
2023/11/11 03:55:52;;;;;;;7.10;5.00;;;11.60;99.20;;;;;;5024926;28;20554;-28
2023/11/11 03:58:22;;;;;;;4.90;4.40;;;11.60;99.20;;;;;;5006317;28;20435;-28
2023/11/11 04:00:48;;;;;;;5.33;4.57;;;11.60;99.20;;;;;;5008460;28;20442;-27
2023/11/11 04:03:16;;;;;;;4.90;4.50;;;11.60;99.30;;;;;;5020610;28;20449;-28
2023/11/11 04:05:46;;;;;;;6.05;4.85;;;11.60;99.30;;;;;;4970374;28;20431;-27
2023/11/11 04:08:14;;;;;;;4.33;3.90;;;11.60;99.60;;;;;;5010181;28;20201;-27
2023/11/11 04:10:43;;;;;;;5.17;4.00;;;11.60;99.20;;;;;;5014546;28;20548;-27
2023/11/11 04:13:09;;;;;;;4.00;3.60;;;11.60;99.10;;;;;;5017696;28;21030;-27
2023/11/11 04:15:38;;;;;;;6.00;4.03;;;11.60;99.10;;;;;;4997316;28;20269;-27
2023/11/11 04:18:04;;;;;;;5.70;4.07;;;11.70;99.10;;;;;;4995416;28;20479;-27
2023/11/11 04:20:33;;;;;;;4.90;4.27;;;11.70;98.90;;;;;;5002941;28;20477;-27
2023/11/11 04:22:59;;;;;;;4.10;3.70;;;11.70;98.90;;;;;;5012446;28;20477;-28
2023/11/11 04:25:29;;;;;;;4.70;4.00;;;11.70;98.90;;;;;;5008331;28;20434;-28
2023/11/11 04:27:55;;;;;;;4.00;3.57;;;11.60;98.90;;;;;;5026452;28;21204;-27
2023/11/11 04:30:21;;;;;;;4.77;4.27;;;11.60;99.00;;;;;;5012792;28;20466;-27
2023/11/11 04:32:47;;;;;;;4.40;4.00;;;11.60;99.00;;;;;;5007095;28;21046;-27
2023/11/11 04:35:17;;;;;;;4.05;3.72;;;11.60;99.10;;;;;;4990998;28;20432;-27
2023/11/11 04:37:43;;;;;;;3.63;3.33;;;11.60;99.10;;;;;;5021158;28;20195;-28
2023/11/11 04:40:10;;;;;;;3.67;3.37;;;11.60;99.00;;;;;;5033932;28;20191;-26
2023/11/11 04:42:38;;;;;;;4.73;3.90;;;11.70;98.90;;;;;;5024981;28;20448;-26
2023/11/11 04:45:05;;;;;;;3.73;3.43;;;11.70;98.90;;;;;;5011598;28;20983;-28
2023/11/11 04:47:32;;;;;;;3.90;3.20;;;11.60;98.80;;;;;;5027316;28;20436;-27
2023/11/11 04:49:58;;;;;;;3.63;3.33;;;11.60;98.90;;;;;;5027183;28;20513;-28
2023/11/11 04:52:27;;;;;;;7.50;4.00;;;11.60;99.00;;;;;;4995879;28;21049;-26
2023/11/11 04:54:53;;;;;;;6.33;3.57;;;11.60;99.10;;;;;;4991994;28;20461;-27
2023/11/11 04:57:23;;;;;;;3.70;3.40;;;11.50;99.00;;;;;;5030229;28;20420;-27
2023/11/11 04:59:49;;;;;;;3.93;3.13;;;11.50;99.10;;;;;;5030879;28;20523;-26
2023/11/11 05:02:16;;;;;;;4.23;3.13;;;11.50;99.10;;;;;;5013835;28;20933;-27
2023/11/11 05:04:43;;;;;;;3.60;3.30;;;11.50;99.20;;;;;;5006623;28;20481;-27
2023/11/11 05:07:09;;;;;;;4.38;3.58;;;11.50;99.20;;;;;;5031153;28;20429;-27
2023/11/11 05:09:35;;;;;;;3.20;2.90;;;11.50;99.20;;;;;;4999583;28;20207;-27
2023/11/11 05:12:07;;;;;;;3.43;3.10;;;11.50;99.10;;;;;;5033043;28;20584;-27
2023/11/11 05:14:32;;;;;;;3.20;2.90;;;11.60;99.10;;;;;;5035888;28;20480;-30
2023/11/11 05:17:01;;;;;;;3.67;2.77;;;11.50;99.10;;;;;;5018629;28;20443;-29
2023/11/11 05:19:29;;;;;;;2.87;2.67;;;11.50;99.10;;;;;;5028055;28;20454;-26
2023/11/11 05:21:58;;;;;;;3.40;3.13;;;11.50;99.10;;;;;;5033658;28;20451;-27
2023/11/11 05:24:24;;;;;;;3.67;2.80;;;11.50;99.10;;;;;;5026918;28;20544;-27
2023/11/11 05:26:52;;;;;;;2.83;2.40;;;11.50;99.10;;;;;;5024222;28;20466;-27
2023/11/11 05:29:21;;;;;;;3.63;2.50;;;11.50;99.10;;;;;;5025630;28;20450;-28
2023/11/11 05:31:49;;;;;;;2.47;2.27;;;11.50;99.10;;;;;;5009831;28;20221;-27
2023/11/11 05:34:17;;;;;;;3.20;2.23;;;11.50;99.00;;;;;;5040294;28;20516;-27
2023/11/11 05:36:43;;;;;;;2.50;2.30;;;11.50;98.90;;;;;;5013718;28;20460;-27
2023/11/11 05:39:14;;;;;;;2.45;2.25;;;11.50;99.00;;;;;;5033518;28;20423;-27
2023/11/11 05:41:43;;;;;;;3.27;2.80;;;11.50;99.00;;;;;;5022029;28;20286;-27
2023/11/11 05:44:12;;;;;;;2.50;2.30;;;11.50;98.90;;;;;;4986612;28;21030;-26
2023/11/11 05:46:39;;;;;;;2.30;2.10;;;11.50;98.90;;;;;;5024345;28;21142;-26
2023/11/11 05:49:05;;;;;;;3.03;2.20;;;11.50;98.90;;;;;;5022970;28;20457;-26
2023/11/11 05:51:32;;;;;;;3.23;2.27;;;11.50;99.00;;;;;;5021957;28;20474;-27
2023/11/11 05:53:59;;;;;;;2.30;2.10;;;11.50;99.00;;;;;;4994164;28;20443;-27
2023/11/11 05:56:25;;;;;;;2.70;2.50;;;11.50;99.00;;;;;;5032807;28;20442;-27
2023/11/11 05:58:51;;;;;;;2.33;2.13;;;11.40;99.00;;;;;;5032559;28;20471;-27
2023/11/11 06:01:21;;;;;;;3.60;2.60;;;11.40;99.00;;;;;;5023876;28;21402;-27
2023/11/11 06:03:47;;;;;;;2.55;2.35;;;11.40;99.10;;;;;;5026665;28;20438;-27
2023/11/11 06:06:16;;;;;;;2.40;2.10;;;11.40;99.10;;;;;;5023689;28;20993;-27
2023/11/11 06:08:42;;;;;;;2.40;2.00;;;11.50;99.00;;;;;;5025589;28;20445;-26
2023/11/11 06:11:10;;;;;;;3.03;1.90;;;11.50;99.00;;;;;;5033548;28;20470;-27
2023/11/11 06:13:36;;;;;;;2.37;2.17;;;11.50;99.00;;;;;;5026365;28;20444;-27
2023/11/11 06:16:04;;;;;;;2.70;2.50;;;11.40;99.00;;;;;;5011006;28;20429;-27
2023/11/11 06:18:30;;;;;;;3.90;2.60;;;11.50;99.10;;;;;;5006838;28;20181;-27
2023/11/11 06:20:59;;;;;;;2.90;2.60;;;11.50;98.90;;;;;;5027792;28;21379;-27
2023/11/11 06:23:28;;;;;;;7.50;3.27;;;11.50;98.90;;;;;;5028019;28;20463;-26
2023/11/11 06:25:54;;;;;;;4.93;2.60;;;11.50;98.90;;;;;;5011689;28;20437;-27
2023/11/11 06:28:20;;;;;;;4.33;3.43;;;11.50;98.90;;;;;;5034657;28;20202;-28
2023/11/11 06:30:46;;;;;;;3.33;3.08;;;11.50;98.90;;;;;;4991516;28;20213;-26
2023/11/11 06:33:12;;;;;;;4.47;3.00;;;11.50;98.80;;;;;;4982140;28;20734;-27
2023/11/11 06:35:40;;;;;;;3.17;2.88;;;11.50;98.80;;;;;;5007138;28;20484;-27
2023/11/11 06:38:06;;;;;;;4.73;3.10;;;11.50;98.80;;;;;;5029035;28;20209;-27
2023/11/11 06:40:32;;;;;;;4.10;3.37;;;11.50;98.70;;;;;;5002150;28;20463;-26
2023/11/11 06:43:01;;;;;;;4.17;3.53;;;11.50;98.80;;;;;;5021753;28;20431;-27
2023/11/11 06:45:30;;;;;;;3.63;3.33;;;11.50;98.80;;;;;;5023955;28;20448;-27
2023/11/11 06:47:58;;;;;;;5.70;3.83;;;11.50;98.90;;;;;;5014443;28;20194;-27
2023/11/11 06:50:30;;;;;;;7.23;3.97;;;11.50;98.80;;;;;;5024134;28;20454;-26
2023/11/11 06:52:56;;;;;;;7.17;4.70;;;11.40;98.80;;;;;;5025432;28;21191;-26
2023/11/11 06:55:22;;;;;;;5.50;4.80;;;11.40;98.80;;;;;;4991108;28;20453;-26
2023/11/11 06:57:48;;;;;;;7.50;4.60;;;11.40;98.80;;;;;;5004852;28;20430;-26
2023/11/11 07:00:18;;;;;;;5.03;4.53;;;11.40;98.90;;;;;;5031056;28;20458;-27
2023/11/11 07:02:48;;;;;;;4.67;3.97;;;11.40;99.00;;;;;;5021840;28;20446;-26
2023/11/11 07:05:14;;;;;;;6.47;4.67;;;11.30;99.00;;;;;;5029924;28;21019;-27
2023/11/11 07:07:41;;;;;;;7.10;5.30;;;11.30;99.00;;;;;;4983515;28;21308;-27
2023/11/11 07:10:07;;;;;;;5.53;5.03;;;11.30;99.10;;;;;;5026659;28;20439;-27
2023/11/11 07:12:33;;;;;;;7.87;5.57;;;11.30;99.00;;;;;;5005655;28;20473;-26
2023/11/11 07:14:59;;;;;;;7.35;4.82;;;11.30;99.10;;;;;;5001245;28;21228;-27
2023/11/11 07:17:25;;;;;;;4.83;4.10;;;11.30;99.10;;;;;;5020251;28;20286;-26
2023/11/11 07:19:51;;;;;;;4.43;4.03;;;11.40;99.00;;;;;;5010734;28;20449;-26
2023/11/11 07:22:20;;;;;;;8.10;4.95;;;11.40;99.00;;;;;;5032645;28;20460;-27
2023/11/11 07:24:47;;;;;;;5.30;4.80;;;11.40;99.00;;;;;;5021276;28;20187;-27
2023/11/11 07:27:15;;;;;;;5.60;4.13;;;11.40;98.90;;;;;;5015921;28;20534;-26
2023/11/11 07:29:41;;;;;;;6.67;4.10;;;11.40;98.80;;;;;;4997570;28;20445;-27
2023/11/11 07:32:12;;;;;;;5.33;4.23;;;11.30;98.80;;;;;;5034328;28;21158;-27
2023/11/11 07:34:38;;;;;;;5.30;4.53;;;11.30;98.80;;;;;;5005474;28;20475;-26
2023/11/11 07:37:04;;;;;;;5.70;4.57;;;11.30;98.90;;;;;;5022282;28;20455;-26
2023/11/11 07:39:30;;;;;;;4.97;4.30;;;11.30;98.90;;;;;;5023238;28;20221;-27
2023/11/11 07:41:56;;;;;;;6.47;4.70;;;11.30;98.90;;;;;;5028172;28;20548;-27
2023/11/11 07:44:24;;;;;;;5.75;4.10;;;11.30;98.90;;;;;;4996496;28;20465;-26
2023/11/11 07:46:50;;;;;;;6.60;3.80;;;11.30;98.90;;;;;;5032773;28;20526;-27
2023/11/11 07:49:19;;;;;;;9.27;4.33;;;11.30;98.80;;;;;;4999766;28;20514;-26
2023/11/11 07:51:48;;;;;;;11.50;5.13;;;11.30;98.80;;;;;;5007301;28;20629;-26
2023/11/11 07:54:17;;;;;;;4.63;3.90;;;11.30;98.80;;;;;;5018349;28;20434;-26
2023/11/11 07:56:46;;;;;;;6.60;4.53;;;11.30;98.90;;;;;;4995102;28;20431;-26
2023/11/11 07:59:14;;;;;;;4.03;3.63;;;11.30;98.80;;;;;;5025362;28;20276;-27
2023/11/11 08:01:41;;;;;;;4.35;3.80;;;11.30;98.80;;;;;;5004212;28;20541;-27
2023/11/11 08:04:08;;;;;;;6.63;4.43;;;11.40;98.70;;;;;;4985878;28;20205;-26
2023/11/11 08:06:37;;;;;;;8.50;4.60;;;11.40;98.60;;;;;;5016930;28;20835;-27
2023/11/11 08:09:03;;;;;;;7.17;4.30;;;11.40;98.70;;;;;;5030729;28;21247;-26
2023/11/11 08:11:32;;;;;;;5.43;4.50;;;11.30;98.60;;;;;;5024770;28;20466;-27
2023/11/11 08:13:58;;;;;;;5.63;4.10;;;11.30;98.70;;;;;;5027538;28;20287;-26
2023/11/11 08:16:24;;;;;;;5.37;4.13;;;11.40;98.70;;;;;;5032317;28;20849;-27
2023/11/11 08:18:50;;;;;;;7.37;4.30;;;11.40;98.70;;;;;;5036405;28;20444;-26
2023/11/11 08:21:20;;;;;;;5.43;4.83;;;11.30;98.60;;;;;;5029429;28;20456;-28
2023/11/11 08:23:46;;;;;;;8.53;4.97;;;11.30;98.70;;;;;;5027153;28;20427;-26
2023/11/11 08:26:12;;;;;;;6.00;4.73;;;11.30;98.70;;;;;;5030995;28;20560;-27
2023/11/11 08:28:38;;;;;;;5.97;5.37;;;11.20;98.70;;;;;;5024015;28;20423;-27
2023/11/11 08:31:06;;;;;;;6.70;5.37;;;11.20;98.80;;;;;;5029178;28;20459;-27
2023/11/11 08:33:32;;;;;;;6.00;4.73;;;11.20;98.90;;;;;;5020470;28;20601;-27
2023/11/11 08:35:58;;;;;;;7.93;5.20;;;11.20;98.90;;;;;;5014014;28;20584;-27
2023/11/11 08:38:25;;;;;;;9.23;4.80;;;11.30;98.90;;;;;;5005252;28;20206;-26
2023/11/11 08:40:51;;;;;;;7.07;6.27;;;11.30;98.80;;;;;;5005910;28;20557;-27
2023/11/11 08:43:20;;;;;;;5.13;4.43;;;11.30;98.70;;;;;;5010529;28;20447;-27
2023/11/11 08:45:46;;;;;;;4.93;4.50;;;11.30;98.80;;;;;;5021935;28;20430;-27
2023/11/11 08:48:14;;;;;;;6.60;4.87;;;11.30;98.80;;;;;;5034786;28;20441;-27
2023/11/11 08:50:42;;;;;;;7.60;4.83;;;11.20;98.80;;;;;;5017126;28;20438;-27
2023/11/11 08:53:14;;;;;;;7.80;5.23;;;11.20;98.80;;;;;;5022709;28;20425;-27
2023/11/11 08:55:40;;;;;;;7.60;6.07;;;11.20;98.80;;;;;;5021145;28;20463;-27
2023/11/11 08:58:06;;;;;;;5.97;5.07;;;11.20;98.80;;;;;;5002881;28;20199;-27
2023/11/11 09:00:34;;;;;;;11.70;5.30;;;11.30;98.80;;;;;;5028412;28;20211;-27
2023/11/11 09:03:04;;;;;;;8.83;5.80;;;11.30;98.60;;;;;;5031464;28;20221;-26
2023/11/11 09:05:30;;;;;;;8.73;5.33;;;11.30;98.60;;;;;;5015151;28;20532;-27
2023/11/11 09:07:58;;;;;;;5.07;4.57;;;11.30;98.70;;;;;;5025050;28;20432;-27
2023/11/11 09:10:27;;;;;;;7.73;5.40;;;11.30;98.70;;;;;;5027319;28;20919;-27
2023/11/11 09:12:56;;;;;;;7.27;4.70;;;11.30;98.80;;;;;;5032176;28;20481;-27
2023/11/11 09:15:22;;;;;;;6.00;4.83;;;11.30;98.80;;;;;;5020313;28;20952;-27
2023/11/11 09:17:48;;;;;;;11.52;5.13;;;11.30;98.90;;;;;;5029332;28;20435;-26
2023/11/11 09:20:16;;;;;;;6.70;4.70;;;11.30;98.90;;;;;;5031722;28;20210;-27
2023/11/11 09:22:42;;;;;;;5.40;4.70;;;11.30;98.80;;;;;;5023283;28;20462;-27
2023/11/11 09:25:10;;;;;;;6.83;4.90;;;11.30;98.80;;;;;;5025481;28;21289;-27
2023/11/11 09:27:37;;;;;;;6.27;5.03;;;11.30;99.10;;;;;;5029991;28;20436;-26
2023/11/11 09:30:05;;;;;;;5.87;4.00;;;11.30;98.80;;;;;;4994361;28;20526;-27
2023/11/11 09:32:31;;;;;;;6.23;4.30;;;11.30;98.80;;;;;;5032604;28;20565;-27
2023/11/11 09:34:57;;;;;;;7.37;5.20;;;11.30;98.90;;;;;;5006035;28;21241;-27
2023/11/11 09:37:23;;;;;;;7.77;5.53;;;11.20;98.90;;;;;;5014281;28;21008;-27
2023/11/11 09:39:49;;;;;;;8.23;4.82;;;11.20;98.90;;;;;;5030746;28;20427;-27
2023/11/11 09:42:15;;;;;;;12.70;5.40;;;11.30;99.00;;;;;;5030482;28;20904;-27
2023/11/11 09:44:42;;;;;;;5.07;4.67;;;11.30;98.90;;;;;;5024150;28;20435;-27
2023/11/11 09:47:14;;;;;;;7.50;5.33;;;11.30;98.90;;;;;;5029081;28;20423;-29
2023/11/11 09:49:42;;;;;;;4.90;4.37;;;11.30;98.90;;;;;;5023740;28;20520;-27
2023/11/11 09:52:09;;;;;;;8.40;4.90;;;11.30;98.90;;;;;;5021629;28;20467;-26
2023/11/11 09:54:37;;;;;;;6.80;5.10;;;11.30;99.00;;;;;;4995554;28;20461;-27
2023/11/11 09:57:04;;;;;;;7.43;4.73;;;11.30;99.10;;;;;;5023902;28;20429;-27
2023/11/11 09:59:32;;;;;;;5.60;4.27;;;11.20;99.00;;;;;;5020676;28;20425;-27
2023/11/11 10:02:00;;;;;;;7.80;5.57;;;11.20;99.00;;;;;;5020402;28;20468;-27
2023/11/11 10:04:26;;;;;;;6.90;6.20;;;11.20;99.10;;;;;;5027981;28;21095;-26
2023/11/11 10:06:52;;;;;;;10.63;5.27;;;11.20;99.10;;;;;;5015962;28;20611;-27
2023/11/11 10:09:18;;;;;;;8.13;5.53;;;11.20;99.10;;;;;;5026562;28;20605;-27
2023/11/11 10:11:47;;;;;;;8.00;4.80;;;11.20;99.20;;;;;;5035902;28;20476;-27
2023/11/11 10:14:21;;;;;;;6.57;5.13;;;11.20;99.20;;;;;;4995235;28;20450;-26
2023/11/11 10:16:48;;;;;;;9.03;4.73;;;11.20;99.20;;;;;;5029527;28;20424;-27
2023/11/11 10:19:14;;;;;;;6.22;4.85;;;11.20;99.20;;;;;;5023050;28;20881;-26
2023/11/11 10:21:44;;;;;;;6.00;5.40;;;11.20;99.20;;;;;;4997544;28;20216;-27
2023/11/11 10:24:15;;;;;;;5.13;4.37;;;11.30;99.10;;;;;;5007163;28;20443;-26
2023/11/11 10:26:46;;;;;;;5.83;4.87;;;11.30;99.10;;;;;;5023772;28;21243;-27
2023/11/11 10:29:15;;;;;;;8.57;5.60;;;11.30;99.10;;;;;;5026786;28;20447;-26
2023/11/11 10:31:43;;;;;;;8.60;5.03;;;11.30;99.20;;;;;;5011398;28;21201;-26
2023/11/11 10:34:09;;;;;;;6.83;4.83;;;11.30;99.20;;;;;;5008527;28;20613;-27
2023/11/11 10:36:44;;;;;;;7.30;4.63;;;11.30;99.20;;;;;;5028146;28;21399;-27
2023/11/11 10:39:13;;;;;;;4.45;3.80;;;11.20;99.20;;;;;;5019861;28;20775;-26
2023/11/11 10:41:39;;;;;;;7.27;4.67;;;11.30;99.20;;;;;;5008067;28;20267;-26
2023/11/11 10:44:07;;;;;;;7.57;5.50;;;11.30;99.20;;;;;;5008738;28;20428;-28
2023/11/11 10:46:39;;;;;;;7.00;5.17;;;11.30;99.10;;;;;;5032939;28;20932;-26
2023/11/11 10:49:10;;;;;;;6.67;5.00;;;11.30;99.10;;;;;;5013659;28;20441;-28
2023/11/11 10:51:39;;;;;;;8.10;4.13;;;11.30;99.20;;;;;;5027605;28;21087;-27
2023/11/11 10:54:08;;;;;;;5.03;4.23;;;11.30;99.20;;;;;;4988140;28;20440;-29
2023/11/11 10:56:36;;;;;;;5.90;4.53;;;11.30;99.30;;;;;;5006864;28;20448;-29
2023/11/11 10:59:05;;;;;;;5.23;4.20;;;11.30;99.30;;;;;;5004155;28;20523;-28
2023/11/11 11:01:36;;;;;;;7.10;4.57;;;11.30;99.30;;;;;;5021895;28;20553;-28
2023/11/11 11:04:04;;;;;;;5.43;3.93;;;11.30;99.40;;;;;;5033289;28;21383;-29
2023/11/11 11:06:33;;;;;;;6.63;4.10;;;11.30;99.40;;;;;;5010590;28;20473;-29
2023/11/11 11:09:29;;;;;;;6.83;4.63;;;11.30;99.40;;;;;;5023921;28;20433;-27
2023/11/11 11:12:06;;;;;;;5.70;4.40;;;11.30;99.40;;;;;;5019911;28;20599;-28
2023/11/11 11:14:47;;;;;;;6.80;4.35;;;11.30;99.40;;;;;;5027179;28;20424;-28
2023/11/11 11:17:15;;;;;;;8.45;4.88;;;11.30;99.40;;;;;;4990787;28;20851;-27
2023/11/11 11:19:52;;;;;;;5.97;4.50;;;11.40;99.30;;;;;;5021648;28;20275;-28
2023/11/11 11:22:22;;;;;;;4.17;3.70;;;11.40;99.20;;;;;;5021736;28;20444;-28
2023/11/11 11:24:49;;;;;;;8.83;4.87;;;11.40;99.20;;;;;;5007787;28;20913;-27
2023/11/11 11:27:15;;;;;;;5.68;5.13;;;11.40;99.30;;;;;;5019497;28;20521;-27
2023/11/11 11:29:45;;;;;;;5.53;4.07;;;11.40;99.30;;;;;;5024753;28;20314;-27
2023/11/11 11:32:11;;;;;;;7.87;4.70;;;11.50;99.30;;;;;;5019328;28;20230;-27
2023/11/11 11:35:00;;;;;;;5.77;4.63;;;11.50;99.20;;;;;;5023636;28;20424;-28
2023/11/11 11:37:30;;;;;;;5.43;4.23;;;11.50;99.20;;;;;;5017347;28;20449;-28
2023/11/11 11:40:08;;;;;;;6.20;3.90;;;11.40;99.20;;;;;;5018240;28;20501;-28
2023/11/11 11:42:37;;;;;;;8.90;4.43;;;11.40;99.40;;;;;;4982030;28;20473;-27
2023/11/11 11:45:11;;;;;;;6.33;4.23;;;11.40;99.40;;;;;;5015184;28;21432;-28
2023/11/11 11:47:38;;;;;;;5.13;4.23;;;11.40;99.60;;;;;;4994888;28;20460;-29
2023/11/11 11:50:06;;;;;;;6.17;4.60;;;11.30;99.60;;;;;;5026449;28;20454;-28
2023/11/11 11:52:35;;;;;;;5.30;4.60;;;11.40;99.70;;;;;;5006236;28;21119;-28
2023/11/11 11:55:05;;;;;;;5.67;4.10;;;11.30;99.60;;;;;;5018862;28;20509;-29
2023/11/11 11:57:55;;;;;;;4.60;3.80;;;11.40;99.70;;;;;;5010855;28;20444;-28
2023/11/11 12:00:21;;;;;;;8.03;4.00;;;11.40;99.60;;;;;;5018558;28;20439;-27
2023/11/11 12:02:50;;;;;;;4.70;3.40;;;11.40;99.50;;;;;;5021771;28;20531;-29
2023/11/11 12:05:17;;;;;;;10.03;4.00;;;11.50;99.40;;;;;;5007025;28;20450;-28
2023/11/11 12:07:48;;;;;;;7.10;4.43;;;11.50;99.50;;;;;;5027878;28;20478;-28
2023/11/11 12:10:19;;;;;;;6.80;3.83;;;11.40;99.50;;;;;;5016096;28;20449;-27
2023/11/11 12:12:52;;;;;;;4.97;3.93;;;11.40;99.50;;;;;;5022011;28;20510;-28
2023/11/11 12:15:18;;;;;;;9.33;3.97;;;11.40;99.60;;;;;;5019617;28;20453;-27
2023/11/11 12:17:52;;;;;;;7.43;4.00;;;11.40;99.70;;;;;;5022004;28;20953;-30
2023/11/11 12:20:37;;;;;;;4.82;3.67;;;11.40;99.70;;;;;;5015767;28;20614;-28
2023/11/11 12:23:09;;;;;;;5.23;4.20;;;11.40;99.70;;;;;;5028261;28;20188;-29
2023/11/11 12:25:41;;;;;;;6.47;3.30;;;11.50;99.60;;;;;;5026009;28;20427;-30
2023/11/11 12:28:10;;;;;;;8.80;3.60;;;11.50;99.40;;;;;;5034634;28;20430;-29
2023/11/11 12:30:36;;;;;;;5.13;2.97;;;11.50;99.40;;;;;;5002092;28;20429;-29
2023/11/11 12:33:08;;;;;;;8.00;4.00;;;11.50;99.50;;;;;;5033483;28;20455;-28
2023/11/11 12:35:41;;;;;;;5.53;3.53;;;11.50;99.50;;;;;;5023836;28;20962;-27
2023/11/11 12:38:28;;;;;;;5.20;3.50;;;11.50;99.40;;;;;;5030417;28;21404;-27
2023/11/11 12:41:02;;;;;;;8.47;3.93;;;11.50;99.50;;;;;;5018205;28;20531;-27
2023/11/11 12:43:29;;;;;;;7.57;3.73;;;11.40;99.50;;;;;;5004182;28;20868;-28
2023/11/11 12:46:00;;;;;;;3.63;3.00;;;11.40;99.60;;;;;;5024158;28;20440;-28
2023/11/11 12:48:30;;;;;;;4.80;3.72;;;11.40;99.60;;;;;;5030387;28;20481;-27
2023/11/11 12:50:56;;;;;;;4.93;3.03;;;11.40;99.60;;;;;;5006326;28;20212;-27